sensor_id;sensor_type;location;lat;lon;timestamp;pressure;altitude;pressure_sealevel;temperature;humidity
41078;BME280;26823;42.662;23.352;2023-10-08T00:01:49;95255.50;;;12.27;54.03
41078;BME280;26823;42.662;23.352;2023-10-08T00:04:16;95253.31;;;12.23;54.07
41078;BME280;26823;42.662;23.352;2023-10-08T00:06:45;95247.66;;;12.20;54.52
41078;BME280;26823;42.662;23.352;2023-10-08T00:09:11;95236.31;;;12.13;54.41
41078;BME280;26823;42.662;23.352;2023-10-08T00:11:38;95255.22;;;12.23;54.74
41078;BME280;26823;42.662;23.352;2023-10-08T00:14:04;95242.53;;;12.13;54.31
41078;BME280;26823;42.662;23.352;2023-10-08T00:16:37;95231.97;;;12.12;53.52
41078;BME280;26823;42.662;23.352;2023-10-08T00:19:06;95242.53;;;12.13;54.40
41078;BME280;26823;42.662;23.352;2023-10-08T00:21:38;95232.28;;;12.00;54.75
41078;BME280;26823;42.662;23.352;2023-10-08T00:24:05;95225.53;;;11.92;55.01
41078;BME280;26823;42.662;23.352;2023-10-08T00:26:34;95214.69;;;11.87;55.42
41078;BME280;26823;42.662;23.352;2023-10-08T00:29:06;95231.47;;;11.99;55.98
41078;BME280;26823;42.662;23.352;2023-10-08T00:31:41;95237.16;;;11.93;56.42
41078;BME280;26823;42.662;23.352;2023-10-08T00:34:10;95236.34;;;11.92;56.66
41078;BME280;26823;42.662;23.352;2023-10-08T00:36:43;95233.38;;;11.88;56.75
41078;BME280;26823;42.662;23.352;2023-10-08T00:39:11;95229.34;;;11.81;55.86
41078;BME280;26823;42.662;23.352;2023-10-08T00:41:45;95232.03;;;11.86;55.62
41078;BME280;26823;42.662;23.352;2023-10-08T00:44:12;95223.69;;;11.67;55.43
41078;BME280;26823;42.662;23.352;2023-10-08T00:46:47;95222.09;;;11.61;56.62
41078;BME280;26823;42.662;23.352;2023-10-08T00:49:18;95204.75;;;11.51;57.07
41078;BME280;26823;42.662;23.352;2023-10-08T00:51:53;95202.31;;;11.55;57.44
41078;BME280;26823;42.662;23.352;2023-10-08T00:54:38;95221.78;;;11.72;56.99
41078;BME280;26823;42.662;23.352;2023-10-08T00:57:26;95206.34;;;11.73;56.03
41078;BME280;26823;42.662;23.352;2023-10-08T00:59:51;95207.97;;;11.69;56.04
41078;BME280;26823;42.662;23.352;2023-10-08T01:02:22;95205.53;;;11.67;56.56
41078;BME280;26823;42.662;23.352;2023-10-08T01:04:52;95212.88;;;11.67;57.11
41078;BME280;26823;42.662;23.352;2023-10-08T01:07:19;95215.81;;;11.65;57.22
41078;BME280;26823;42.662;23.352;2023-10-08T01:09:46;95217.47;;;11.61;57.03
41078;BME280;26823;42.662;23.352;2023-10-08T01:12:24;95206.63;;;11.61;57.38
41078;BME280;26823;42.662;23.352;2023-10-08T01:15:12;95203.41;;;11.49;55.71
41078;BME280;26823;42.662;23.352;2023-10-08T01:17:49;95203.16;;;11.45;56.28
41078;BME280;26823;42.662;23.352;2023-10-08T01:20:25;95208.03;;;11.43;57.89
41078;BME280;26823;42.662;23.352;2023-10-08T01:23:06;95218.56;;;11.50;58.27
41078;BME280;26823;42.662;23.352;2023-10-08T01:25:36;95211.00;;;11.47;57.53
41078;BME280;26823;42.662;23.352;2023-10-08T01:28:03;95197.19;;;11.48;57.16
41078;BME280;26823;42.662;23.352;2023-10-08T01:30:36;95195.56;;;11.47;58.18
41078;BME280;26823;42.662;23.352;2023-10-08T01:33:10;95215.34;;;11.53;57.78
41078;BME280;26823;42.662;23.352;2023-10-08T01:35:40;95210.16;;;11.51;57.81
41078;BME280;26823;42.662;23.352;2023-10-08T01:38:05;95208.03;;;11.48;57.37
41078;BME280;26823;42.662;23.352;2023-10-08T01:40:32;95212.09;;;11.40;57.27
41078;BME280;26823;42.662;23.352;2023-10-08T01:42:57;95218.31;;;11.41;56.81
41078;BME280;26823;42.662;23.352;2023-10-08T01:45:28;95221.59;;;11.38;57.04
41078;BME280;26823;42.662;23.352;2023-10-08T01:47:55;95209.41;;;11.35;57.34
41078;BME280;26823;42.662;23.352;2023-10-08T01:50:21;95217.53;;;11.40;57.40
41078;BME280;26823;42.662;23.352;2023-10-08T01:52:49;95210.22;;;11.36;57.12
41078;BME280;26823;42.662;23.352;2023-10-08T01:55:16;95217.53;;;11.30;58.01
41078;BME280;26823;42.662;23.352;2023-10-08T01:57:45;95219.97;;;11.32;57.69
41078;BME280;26823;42.662;23.352;2023-10-08T02:00:11;95207.53;;;11.25;58.24
41078;BME280;26823;42.662;23.352;2023-10-08T02:02:39;95205.34;;;11.12;57.94
41078;BME280;26823;42.662;23.352;2023-10-08T02:05:06;95219.44;;;11.14;58.54
41078;BME280;26823;42.662;23.352;2023-10-08T02:07:32;95212.16;;;11.15;58.51
41078;BME280;26823;42.662;23.352;2023-10-08T02:09:59;95215.13;;;11.08;58.19
41078;BME280;26823;42.662;23.352;2023-10-08T02:12:24;95216.75;;;11.04;57.43
41078;BME280;26823;42.662;23.352;2023-10-08T02:14:50;95202.66;;;11.07;57.67
41078;BME280;26823;42.662;23.352;2023-10-08T02:17:16;95214.59;;;11.11;57.64
41078;BME280;26823;42.662;23.352;2023-10-08T02:19:42;95212.97;;;11.10;58.08
41078;BME280;26823;42.662;23.352;2023-10-08T02:22:08;95211.06;;;11.10;58.35
41078;BME280;26823;42.662;23.352;2023-10-08T02:24:37;95201.84;;;11.12;58.93
41078;BME280;26823;42.662;23.352;2023-10-08T02:27:02;95201.84;;;11.17;58.54
41078;BME280;26823;42.662;23.352;2023-10-08T02:29:31;95190.75;;;11.13;58.19
41078;BME280;26823;42.662;23.352;2023-10-08T02:31:57;95189.94;;;11.13;58.36
41078;BME280;26823;42.662;23.352;2023-10-08T02:34:28;95201.56;;;11.23;58.30
41078;BME280;26823;42.662;23.352;2023-10-08T02:36:55;95191.56;;;11.14;58.49
41078;BME280;26823;42.662;23.352;2023-10-08T02:39:21;95198.34;;;11.11;59.23
41078;BME280;26823;42.662;23.352;2023-10-08T02:41:50;95182.34;;;11.04;59.33
41078;BME280;26823;42.662;23.352;2023-10-08T02:44:16;95187.25;;;11.07;59.16
41078;BME280;26823;42.662;23.352;2023-10-08T02:46:43;95180.75;;;10.93;59.00
41078;BME280;26823;42.662;23.352;2023-10-08T02:49:10;95185.63;;;10.96;58.98
41078;BME280;26823;42.662;23.352;2023-10-08T02:51:39;95187.50;;;10.96;59.40
41078;BME280;26823;42.662;23.352;2023-10-08T02:54:09;95192.94;;;11.01;59.85
41078;BME280;26823;42.662;23.352;2023-10-08T02:56:43;95197.53;;;11.00;59.63
41078;BME280;26823;42.662;23.352;2023-10-08T02:59:10;95191.28;;;10.84;59.74
41078;BME280;26823;42.662;23.352;2023-10-08T03:01:37;95182.91;;;10.70;59.87
41078;BME280;26823;42.662;23.352;2023-10-08T03:04:05;95197.00;;;10.72;60.08
41078;BME280;26823;42.662;23.352;2023-10-08T03:06:39;95201.84;;;10.70;60.81
41078;BME280;26823;42.662;23.352;2023-10-08T03:09:06;95199.69;;;10.67;61.14
41078;BME280;26823;42.662;23.352;2023-10-08T03:11:32;95196.72;;;10.69;61.41
41078;BME280;26823;42.662;23.352;2023-10-08T03:14:00;95184.81;;;10.59;61.23
41078;BME280;26823;42.662;23.352;2023-10-08T03:16:25;95188.88;;;10.57;61.40
41078;BME280;26823;42.662;23.352;2023-10-08T03:18:59;95190.50;;;10.48;61.31
41078;BME280;26823;42.662;23.352;2023-10-08T03:21:25;95182.09;;;10.44;61.35
41078;BME280;26823;42.662;23.352;2023-10-08T03:24:02;95192.09;;;10.49;61.88
41078;BME280;26823;42.662;23.352;2023-10-08T03:26:37;95197.50;;;10.49;61.78
41078;BME280;26823;42.662;23.352;2023-10-08T03:29:04;95198.84;;;10.46;62.96
41078;BME280;26823;42.662;23.352;2023-10-08T03:31:34;95179.91;;;10.41;62.78
41078;BME280;26823;42.662;23.352;2023-10-08T03:34:12;95185.31;;;10.41;62.85
41078;BME280;26823;42.662;23.352;2023-10-08T03:36:40;95189.09;;;10.40;62.81
41078;BME280;26823;42.662;23.352;2023-10-08T03:39:15;95186.66;;;10.38;63.73
41078;BME280;26823;42.662;23.352;2023-10-08T03:41:44;95173.94;;;10.34;64.05
41078;BME280;26823;42.662;23.352;2023-10-08T03:44:31;95185.88;;;10.38;64.42
41078;BME280;26823;42.662;23.352;2023-10-08T03:46:56;95178.81;;;10.32;65.00
41078;BME280;26823;42.662;23.352;2023-10-08T03:49:22;95183.13;;;10.27;65.03
41078;BME280;26823;42.662;23.352;2023-10-08T03:51:48;95175.25;;;10.21;65.54
41078;BME280;26823;42.662;23.352;2023-10-08T03:54:20;95165.78;;;10.13;66.24
41078;BME280;26823;42.662;23.352;2023-10-08T03:56:55;95173.38;;;10.16;66.45
41078;BME280;26823;42.662;23.352;2023-10-08T03:59:21;95179.56;;;10.11;66.02
41078;BME280;26823;42.662;23.352;2023-10-08T04:02:00;95171.16;;;10.03;66.09
41078;BME280;26823;42.662;23.352;2023-10-08T04:04:39;95163.31;;;10.01;66.46
41078;BME280;26823;42.662;23.352;2023-10-08T04:07:19;95146.53;;;9.89;66.05
41078;BME280;26823;42.662;23.352;2023-10-08T04:10:05;95157.06;;;9.90;66.00
41078;BME280;26823;42.662;23.352;2023-10-08T04:12:33;95155.41;;;9.79;65.77
41078;BME280;26823;42.662;23.352;2023-10-08T04:15:03;95155.94;;;9.76;65.65
41078;BME280;26823;42.662;23.352;2023-10-08T04:17:35;95164.06;;;9.81;65.80
41078;BME280;26823;42.662;23.352;2023-10-08T04:20:19;95163.00;;;9.82;66.67
41078;BME280;26823;42.662;23.352;2023-10-08T04:23:08;95155.94;;;9.76;67.43
41078;BME280;26823;42.662;23.352;2023-10-08T04:25:46;95159.44;;;9.76;67.49
41078;BME280;26823;42.662;23.352;2023-10-08T04:28:22;95158.41;;;9.88;66.72
41078;BME280;26823;42.662;23.352;2023-10-08T04:30:48;95157.31;;;9.84;66.71
41078;BME280;26823;42.662;23.352;2023-10-08T04:33:13;95169.19;;;9.83;67.06
41078;BME280;26823;42.662;23.352;2023-10-08T04:35:43;95154.88;;;9.77;66.89
41078;BME280;26823;42.662;23.352;2023-10-08T04:38:22;95164.06;;;9.81;67.14
41078;BME280;26823;42.662;23.352;2023-10-08T04:40:49;95161.09;;;9.77;67.36
41078;BME280;26823;42.662;23.352;2023-10-08T04:43:17;95158.66;;;9.76;67.59
41078;BME280;26823;42.662;23.352;2023-10-08T04:45:58;95166.78;;;9.81;67.06
41078;BME280;26823;42.662;23.352;2023-10-08T04:48:25;95170.28;;;9.82;67.22
41078;BME280;26823;42.662;23.352;2023-10-08T04:50:51;95168.41;;;9.82;67.58
41078;BME280;26823;42.662;23.352;2023-10-08T04:53:30;95176.50;;;9.77;66.83
41078;BME280;26823;42.662;23.352;2023-10-08T04:56:07;95176.50;;;9.77;67.02
41078;BME280;26823;42.662;23.352;2023-10-08T04:58:39;95173.50;;;9.78;67.04
41078;BME280;26823;42.662;23.352;2023-10-08T05:01:13;95165.91;;;9.70;67.18
41078;BME280;26823;42.662;23.352;2023-10-08T05:04:04;95176.19;;;9.73;67.07
41078;BME280;26823;42.662;23.352;2023-10-08T05:06:30;95173.22;;;9.75;66.88
41078;BME280;26823;42.662;23.352;2023-10-08T05:11:37;95185.09;;;9.74;67.23
41078;BME280;26823;42.662;23.352;2023-10-08T05:14:31;95172.72;;;9.78;67.57
41078;BME280;26823;42.662;23.352;2023-10-08T05:16:57;95171.41;;;9.86;67.17
41078;BME280;26823;42.662;23.352;2023-10-08T05:19:29;95183.56;;;9.93;66.78
41078;BME280;26823;42.662;23.352;2023-10-08T05:22:10;95181.41;;;9.95;66.37
41078;BME280;26823;42.662;23.352;2023-10-08T05:24:54;95182.22;;;9.96;66.57
41078;BME280;26823;42.662;23.352;2023-10-08T05:27:34;95185.75;;;10.02;67.04
41078;BME280;26823;42.662;23.352;2023-10-08T05:30:06;95181.41;;;9.95;67.34
41078;BME280;26823;42.662;23.352;2023-10-08T05:33:01;95173.84;;;9.98;67.36
41078;BME280;26823;42.662;23.352;2023-10-08T05:35:50;95181.97;;;10.08;67.44
41078;BME280;26823;42.662;23.352;2023-10-08T05:38:21;95175.50;;;10.04;68.15
41078;BME280;26823;42.662;23.352;2023-10-08T05:40:56;95180.34;;;10.07;67.94
41078;BME280;26823;42.662;23.352;2023-10-08T05:43:38;95192.31;;;10.32;68.02
41078;BME280;26823;42.662;23.352;2023-10-08T05:46:13;95177.16;;;10.20;67.73
41078;BME280;26823;42.662;23.352;2023-10-08T05:48:58;95184.81;;;10.44;67.25
41078;BME280;26823;42.662;23.352;2023-10-08T05:51:34;95190.22;;;10.59;67.16
41078;BME280;26823;42.662;23.352;2023-10-08T05:54:32;95198.34;;;10.80;66.53
41078;BME280;26823;42.662;23.352;2023-10-08T05:57:01;95210.28;;;10.89;66.66
41078;BME280;26823;42.662;23.352;2023-10-08T05:59:41;95192.94;;;11.01;66.08
41078;BME280;26823;42.662;23.352;2023-10-08T06:02:22;95200.50;;;11.19;65.39
41078;BME280;26823;42.662;23.352;2023-10-08T06:05:05;95212.41;;;11.29;65.05
41078;BME280;26823;42.662;23.352;2023-10-08T06:15:35;95194.13;;;11.70;62.40
41078;BME280;26823;42.662;23.352;2023-10-08T06:18:17;95199.50;;;11.91;61.42
41078;BME280;26823;42.662;23.352;2023-10-08T06:20:44;95189.47;;;11.97;60.44
41078;BME280;26823;42.662;23.352;2023-10-08T06:23:15;95186.66;;;12.17;60.10
41078;BME280;26823;42.662;23.352;2023-10-08T06:25:44;95183.88;;;12.33;60.37
41078;BME280;26823;42.662;23.352;2023-10-08T06:28:14;95189.94;;;12.54;58.34
41078;BME280;26823;42.662;23.352;2023-10-08T06:30:47;95191.25;;;12.67;56.96
41078;BME280;26823;42.662;23.352;2023-10-08T06:33:14;95195.13;;;12.90;56.40
41078;BME280;26823;42.662;23.352;2023-10-08T06:35:39;95162.59;;;12.85;55.58
41078;BME280;26823;42.662;23.352;2023-10-08T06:38:10;95206.53;;;13.21;55.30
41078;BME280;26823;42.662;23.352;2023-10-08T06:40:36;95194.50;;;13.33;54.53
41078;BME280;26823;42.662;23.352;2023-10-08T06:43:02;95193.16;;;13.60;53.63
41078;BME280;26823;42.662;23.352;2023-10-08T06:45:44;95177.56;;;13.70;52.26
41078;BME280;26823;42.662;23.352;2023-10-08T06:48:10;95174.72;;;13.81;51.60
41078;BME280;26823;42.662;23.352;2023-10-08T06:50:43;95181.91;;;13.91;51.25
41078;BME280;26823;42.662;23.352;2023-10-08T06:53:10;95168.56;;;13.94;51.74
41078;BME280;26823;42.662;23.352;2023-10-08T06:55:41;95176.19;;;14.16;51.14
41078;BME280;26823;42.662;23.352;2023-10-08T06:58:07;95166.84;;;14.23;51.26
41078;BME280;26823;42.662;23.352;2023-10-08T07:00:36;95189.56;;;14.51;50.89
41078;BME280;26823;42.662;23.352;2023-10-08T07:03:06;95185.59;;;14.62;49.90
41078;BME280;26823;42.662;23.352;2023-10-08T07:05:34;95186.88;;;14.70;49.89
41078;BME280;26823;42.662;23.352;2023-10-08T07:08:06;95172.38;;;14.75;49.80
41078;BME280;26823;42.662;23.352;2023-10-08T07:10:33;95183.03;;;14.90;49.18
41078;BME280;26823;42.662;23.352;2023-10-08T07:13:02;95183.59;;;15.06;48.72
41078;BME280;26823;42.662;23.352;2023-10-08T07:15:29;95188.25;;;15.20;48.26
41078;BME280;26823;42.662;23.352;2023-10-08T07:17:56;95176.16;;;15.26;48.11
41078;BME280;26823;42.662;23.352;2023-10-08T07:20:21;95174.09;;;15.37;47.57
41078;BME280;26823;42.662;23.352;2023-10-08T07:22:47;95184.19;;;15.50;47.09
41078;BME280;26823;42.662;23.352;2023-10-08T07:25:21;95174.91;;;15.65;47.08
41078;BME280;26823;42.662;23.352;2023-10-08T07:27:47;95135.63;;;15.52;46.29
41078;BME280;26823;42.662;23.352;2023-10-08T07:30:13;95171.59;;;15.82;46.23
41078;BME280;26823;42.662;23.352;2023-10-08T07:32:52;95162.22;;;15.88;45.99
41078;BME280;26823;42.662;23.352;2023-10-08T07:35:17;95163.34;;;16.01;45.95
41078;BME280;26823;42.662;23.352;2023-10-08T07:37:46;95160.69;;;16.10;45.01
41078;BME280;26823;42.662;23.352;2023-10-08T07:40:13;95155.63;;;16.03;45.29
41078;BME280;26823;42.662;23.352;2023-10-08T07:42:39;95150.56;;;16.24;45.73
41078;BME280;26823;42.662;23.352;2023-10-08T07:45:05;95134.16;;;16.38;45.03
41078;BME280;26823;42.662;23.352;2023-10-08T07:47:31;95141.69;;;16.55;44.70
41078;BME280;26823;42.662;23.352;2023-10-08T07:49:56;95125.81;;;16.57;43.98
41078;BME280;26823;42.662;23.352;2023-10-08T07:52:24;95123.06;;;16.57;43.82
41078;BME280;26823;42.662;23.352;2023-10-08T07:54:49;95136.34;;;16.73;43.90
41078;BME280;26823;42.662;23.352;2023-10-08T07:57:15;95129.00;;;16.96;43.50
41078;BME280;26823;42.662;23.352;2023-10-08T07:59:51;95133.41;;;17.06;43.34
41078;BME280;26823;42.662;23.352;2023-10-08T08:02:20;95132.34;;;17.16;43.15
41078;BME280;26823;42.662;23.352;2023-10-08T08:04:51;95129.84;;;17.28;43.02
41078;BME280;26823;42.662;23.352;2023-10-08T08:07:20;95135.03;;;17.38;42.18
41078;BME280;26823;42.662;23.352;2023-10-08T08:09:50;95123.78;;;17.40;41.82
41078;BME280;26823;42.662;23.352;2023-10-08T08:12:20;95114.53;;;17.58;43.03
41078;BME280;26823;42.662;23.352;2023-10-08T08:14:47;95125.53;;;17.76;42.40
41078;BME280;26823;42.662;23.352;2023-10-08T08:17:13;95113.31;;;17.73;40.90
41078;BME280;26823;42.662;23.352;2023-10-08T08:19:46;95106.97;;;17.64;41.27
41078;BME280;26823;42.662;23.352;2023-10-08T08:22:13;95118.94;;;17.77;41.00
41078;BME280;26823;42.662;23.352;2023-10-08T08:24:50;95106.28;;;17.90;41.50
41078;BME280;26823;42.662;23.352;2023-10-08T08:27:20;95094.69;;;17.93;41.56
41078;BME280;26823;42.662;23.352;2023-10-08T08:29:57;95104.06;;;18.09;42.07
41078;BME280;26823;42.662;23.352;2023-10-08T08:32:37;95095.88;;;18.27;42.16
41078;BME280;26823;42.662;23.352;2023-10-08T08:35:09;95085.59;;;18.59;40.84
41078;BME280;26823;42.662;23.352;2023-10-08T08:37:36;95095.22;;;18.83;38.56
41078;BME280;26823;42.662;23.352;2023-10-08T08:40:06;95092.16;;;19.11;37.81
41078;BME280;26823;42.662;23.352;2023-10-08T08:42:44;95082.28;;;19.27;35.94
41078;BME280;26823;42.662;23.352;2023-10-08T08:45:11;95088.31;;;19.50;36.97
41078;BME280;26823;42.662;23.352;2023-10-08T08:47:39;95088.56;;;19.66;35.92
41078;BME280;26823;42.662;23.352;2023-10-08T08:50:08;95087.69;;;19.83;37.23
41078;BME280;26823;42.662;23.352;2023-10-08T08:52:37;95083.44;;;19.95;34.60
41078;BME280;26823;42.662;23.352;2023-10-08T08:55:06;95067.34;;;20.14;33.66
41078;BME280;26823;42.662;23.352;2023-10-08T08:57:41;95079.84;;;20.24;34.34
41078;BME280;26823;42.662;23.352;2023-10-08T09:00:08;95084.28;;;20.37;36.10
41078;BME280;26823;42.662;23.352;2023-10-08T09:02:37;95076.84;;;20.38;34.40
41078;BME280;26823;42.662;23.352;2023-10-08T09:05:02;95078.72;;;20.46;33.28
41078;BME280;26823;42.662;23.352;2023-10-08T09:07:58;95081.47;;;20.46;36.56
41078;BME280;26823;42.662;23.352;2023-10-08T09:10:28;95076.47;;;20.48;32.87
41078;BME280;26823;42.662;23.352;2023-10-08T09:12:57;95072.69;;;20.53;33.81
41078;BME280;26823;42.662;23.352;2023-10-08T09:15:24;95073.16;;;20.55;32.66
41078;BME280;26823;42.662;23.352;2023-10-08T09:17:51;95069.59;;;20.54;34.13
41078;BME280;26823;42.662;23.352;2023-10-08T09:20:17;95066.84;;;20.54;35.35
41078;BME280;26823;42.662;23.352;2023-10-08T09:22:44;95057.34;;;20.52;35.56
41078;BME280;26823;42.662;23.352;2023-10-08T09:25:20;95065.41;;;20.57;33.68
41078;BME280;26823;42.662;23.352;2023-10-08T09:27:50;95038.84;;;20.61;33.34
41078;BME280;26823;42.662;23.352;2023-10-08T09:30:20;95041.13;;;20.80;31.84
41078;BME280;26823;42.662;23.352;2023-10-08T09:32:47;95045.88;;;21.05;34.97
41078;BME280;26823;42.662;23.352;2023-10-08T09:35:13;95049.22;;;21.23;33.72
41078;BME280;26823;42.662;23.352;2023-10-08T09:37:39;95050.16;;;21.27;31.33
41078;BME280;26823;42.662;23.352;2023-10-08T09:40:07;95028.97;;;21.27;34.39
41078;BME280;26823;42.662;23.352;2023-10-08T09:42:37;95042.63;;;21.48;32.35
41078;BME280;26823;42.662;23.352;2023-10-08T09:45:04;95050.09;;;21.60;31.88
41078;BME280;26823;42.662;23.352;2023-10-08T09:47:36;95040.13;;;21.68;31.17
41078;BME280;26823;42.662;23.352;2023-10-08T09:50:04;95046.00;;;21.79;32.64
41078;BME280;26823;42.662;23.352;2023-10-08T09:52:36;95028.78;;;21.82;32.73
41078;BME280;26823;42.662;23.352;2023-10-08T09:55:08;95038.75;;;21.87;32.96
41078;BME280;26823;42.662;23.352;2023-10-08T09:57:38;95035.53;;;21.85;31.44
41078;BME280;26823;42.662;23.352;2023-10-08T10:00:07;95030.16;;;21.88;31.70
41078;BME280;26823;42.662;23.352;2023-10-08T10:02:41;95030.50;;;21.87;30.57
41078;BME280;26823;42.662;23.352;2023-10-08T10:05:11;95009.84;;;21.68;30.41
41078;BME280;26823;42.662;23.352;2023-10-08T10:07:37;95004.94;;;21.74;31.01
41078;BME280;26823;42.662;23.352;2023-10-08T10:10:25;95006.41;;;21.83;31.74
41078;BME280;26823;42.662;23.352;2023-10-08T10:12:51;95016.84;;;21.90;29.66
41078;BME280;26823;42.662;23.352;2023-10-08T10:15:19;95007.88;;;21.81;30.71
41078;BME280;26823;42.662;23.352;2023-10-08T10:17:46;95019.59;;;21.90;30.41
41078;BME280;26823;42.662;23.352;2023-10-08T10:20:12;95009.63;;;21.86;31.25
41078;BME280;26823;42.662;23.352;2023-10-08T10:22:39;95008.53;;;22.03;31.01
41078;BME280;26823;42.662;23.352;2023-10-08T10:25:07;94991.78;;;22.08;30.90
41078;BME280;26823;42.662;23.352;2023-10-08T10:30:20;94995.16;;;22.42;29.83
41078;BME280;26823;42.662;23.352;2023-10-08T10:32:51;94985.47;;;22.48;28.83
41078;BME280;26823;42.662;23.352;2023-10-08T10:35:17;94984.19;;;22.58;28.38
41078;BME280;26823;42.662;23.352;2023-10-08T10:37:46;94997.09;;;22.70;30.22
41078;BME280;26823;42.662;23.352;2023-10-08T10:40:24;94990.69;;;22.66;31.33
41078;BME280;26823;42.662;23.352;2023-10-08T10:43:05;94983.16;;;22.78;29.32
41078;BME280;26823;42.662;23.352;2023-10-08T10:45:41;94982.19;;;22.87;30.05
41078;BME280;26823;42.662;23.352;2023-10-08T10:48:11;94968.16;;;22.92;30.08
41078;BME280;26823;42.662;23.352;2023-10-08T10:50:58;94971.69;;;22.92;30.22
41078;BME280;26823;42.662;23.352;2023-10-08T10:53:40;94960.34;;;23.10;29.87
41078;BME280;26823;42.662;23.352;2023-10-08T10:56:41;94963.28;;;23.33;29.79
41078;BME280;26823;42.662;23.352;2023-10-08T10:59:10;94966.22;;;23.40;29.64
41078;BME280;26823;42.662;23.352;2023-10-08T11:01:47;94951.38;;;23.45;29.67
41078;BME280;26823;42.662;23.352;2023-10-08T11:04:36;94961.94;;;23.43;29.64
41078;BME280;26823;42.662;23.352;2023-10-08T11:07:18;94960.06;;;23.47;29.14
41078;BME280;26823;42.662;23.352;2023-10-08T11:09:47;94957.13;;;23.56;29.86
41078;BME280;26823;42.662;23.352;2023-10-08T11:12:13;94956.84;;;23.61;29.64
41078;BME280;26823;42.662;23.352;2023-10-08T11:14:46;94931.28;;;23.64;29.80
41078;BME280;26823;42.662;23.352;2023-10-08T11:17:16;94943.88;;;23.81;29.42
41078;BME280;26823;42.662;23.352;2023-10-08T11:19:43;94948.25;;;23.82;28.95
41078;BME280;26823;42.662;23.352;2023-10-08T11:22:12;94955.38;;;23.83;29.54
41078;BME280;26823;42.662;23.352;2023-10-08T11:24:42;94964.03;;;23.82;29.68
41078;BME280;26823;42.662;23.352;2023-10-08T11:27:10;94924.75;;;23.72;29.33
41078;BME280;26823;42.662;23.352;2023-10-08T11:29:51;94937.13;;;23.78;29.24
41078;BME280;26823;42.662;23.352;2023-10-08T11:32:23;94932.75;;;23.77;29.71
41078;BME280;26823;42.662;23.352;2023-10-08T11:34:58;94931.22;;;23.60;30.18
41078;BME280;26823;42.662;23.352;2023-10-08T11:37:45;94938.53;;;23.53;29.55
41078;BME280;26823;42.662;23.352;2023-10-08T11:40:25;94900.91;;;23.12;29.88
41078;BME280;26823;42.662;23.352;2023-10-08T11:42:55;94925.63;;;23.09;31.17
41078;BME280;26823;42.662;23.352;2023-10-08T11:45:24;94926.78;;;23.08;30.73
41078;BME280;26823;42.662;23.352;2023-10-08T11:47:51;94930.25;;;23.05;31.13
41078;BME280;26823;42.662;23.352;2023-10-08T11:50:28;94926.44;;;23.09;31.26
41078;BME280;26823;42.662;23.352;2023-10-08T11:53:01;94937.81;;;23.08;31.24
41078;BME280;26823;42.662;23.352;2023-10-08T11:55:31;94939.59;;;23.00;31.66
41078;BME280;26823;42.662;23.352;2023-10-08T11:58:00;94926.25;;;22.86;31.61
41078;BME280;26823;42.662;23.352;2023-10-08T12:00:26;94922.97;;;22.80;31.96
41078;BME280;26823;42.662;23.352;2023-10-08T12:02:52;94921.81;;;22.82;31.25
41078;BME280;26823;42.662;23.352;2023-10-08T12:05:21;94922.94;;;22.64;32.32
41078;BME280;26823;42.662;23.352;2023-10-08T12:07:53;94921.41;;;22.67;32.10
41078;BME280;26823;42.662;23.352;2023-10-08T12:10:23;94915.75;;;22.76;31.89
41078;BME280;26823;42.662;23.352;2023-10-08T12:12:52;94913.19;;;22.99;31.55
41078;BME280;26823;42.662;23.352;2023-10-08T12:15:22;94932.69;;;23.22;31.40
41078;BME280;26823;42.662;23.352;2023-10-08T12:17:48;94922.53;;;23.42;31.54
41078;BME280;26823;42.662;23.352;2023-10-08T12:20:42;94911.84;;;23.76;30.54
41078;BME280;26823;42.662;23.352;2023-10-08T12:23:13;94911.97;;;24.00;29.99
41078;BME280;26823;42.662;23.352;2023-10-08T12:26:05;94910.56;;;24.29;29.81
41078;BME280;26823;42.662;23.352;2023-10-08T12:28:33;94912.25;;;24.34;30.15
41078;BME280;26823;42.662;23.352;2023-10-08T12:31:00;94914.94;;;24.30;29.64
41078;BME280;26823;42.662;23.352;2023-10-08T12:33:27;94921.31;;;24.54;30.87
41078;BME280;26823;42.662;23.352;2023-10-08T12:35:56;94911.19;;;24.62;29.76
41078;BME280;26823;42.662;23.352;2023-10-08T12:38:23;94925.56;;;24.48;29.66
41078;BME280;26823;42.662;23.352;2023-10-08T12:40:50;94919.72;;;24.33;29.88
41078;BME280;26823;42.662;23.352;2023-10-08T12:43:23;94923.97;;;24.07;30.30
41078;BME280;26823;42.662;23.352;2023-10-08T12:45:53;94922.50;;;23.94;31.07
41078;BME280;26823;42.662;23.352;2023-10-08T12:48:27;94911.13;;;23.80;30.94
41078;BME280;26823;42.662;23.352;2023-10-08T12:51:00;94913.41;;;23.93;32.81
41078;BME280;26823;42.662;23.352;2023-10-08T12:53:32;94888.28;;;23.83;30.74
41078;BME280;26823;42.662;23.352;2023-10-08T12:56:08;94901.28;;;23.98;31.36
41078;BME280;26823;42.662;23.352;2023-10-08T12:58:42;94901.47;;;23.89;31.43
41078;BME280;26823;42.662;23.352;2023-10-08T13:01:13;94904.69;;;23.91;32.50
41078;BME280;26823;42.662;23.352;2023-10-08T13:03:40;94897.16;;;23.72;32.66
41078;BME280;26823;42.662;23.352;2023-10-08T13:06:20;94921.78;;;23.81;31.86
41078;BME280;26823;42.662;23.352;2023-10-08T13:08:54;94915.66;;;23.88;31.75
41078;BME280;26823;42.662;23.352;2023-10-08T13:11:22;94907.09;;;23.93;31.31
41078;BME280;26823;42.662;23.352;2023-10-08T13:13:52;94901.06;;;24.26;30.57
41078;BME280;26823;42.662;23.352;2023-10-08T13:16:26;94896.91;;;24.36;30.08
41078;BME280;26823;42.662;23.352;2023-10-08T13:19:02;94900.47;;;24.37;30.24
41078;BME280;26823;42.662;23.352;2023-10-08T13:21:28;94891.00;;;24.38;29.89
41078;BME280;26823;42.662;23.352;2023-10-08T13:23:59;94886.44;;;24.26;30.29
41078;BME280;26823;42.662;23.352;2023-10-08T13:26:28;94887.84;;;24.16;30.02